SACO/COR METAR and TAF weather

Enter ICAO airport designator
Station Type Date Time Source
SACO METAR 2024/04/15 10:00 UTC NOAA

SACO 151000Z 24005KT 210V270 9999 BKN026 15/14 Q1007 NOSIG


Station Type Date Time Source
SACO Decoded METAR 2024/04/15 10:00 UTC NOAA

Cordoba Aerodrome, Argentina (SACO) 31-19S 064-13W 474M
Apr 15, 2024 - 06:00 AM EDT / 2024.04.15 1000 UTC
Wind: from the WSW (240 degrees) at 6 MPH (5 KT) (direction variable):0
Visibility: greater than 7 mile(s):0
Sky conditions: mostly cloudy
Temperature: 59 F (15 C)
Dew Point: 57 F (14 C)
Relative Humidity: 93%
Pressure (altimeter): 29.74 in. Hg (1007 hPa)
ob: SACO 151000Z 24005KT 210V270 9999 BKN026 15/14 Q1007 NOSIG
cycle: 10

Station Type Date Time Source
SACO TAF 2024/04/15 06:03 UTC NOAA